createdAt,value
2022-08-21T00:00:25.163Z,94995.00
2022-08-21T00:02:55.580Z,94989.88
2022-08-21T00:05:24.841Z,94996.22
2022-08-21T00:07:51.909Z,94995.03
2022-08-21T00:10:19.381Z,94990.06
2022-08-21T00:12:46.461Z,94992.03
2022-08-21T00:15:15.961Z,94986.00
2022-08-21T00:17:42.737Z,94987.78
2022-08-21T00:20:12.071Z,94980.75
2022-08-21T00:22:40.654Z,94987.53
2022-08-21T00:25:09.013Z,94998.13
2022-08-21T00:27:36.132Z,95004.09
2022-08-21T00:30:05.196Z,95001.50
2022-08-21T00:32:32.401Z,94998.03
2022-08-21T00:34:59.237Z,94992.13
2022-08-21T00:37:26.356Z,94988.88
2022-08-21T00:39:54.475Z,94983.75
2022-08-21T00:42:21.382Z,94990.69
2022-08-21T00:44:50.906Z,94988.81
2022-08-21T00:47:18.294Z,94990.38
2022-08-21T00:49:45.218Z,94993.94
2022-08-21T00:52:15.551Z,94990.97
2022-08-21T00:54:43.233Z,94993.38
2022-08-21T00:57:23.410Z,94985.13
2022-08-21T00:59:54.750Z,94982.81
2022-08-21T01:02:21.606Z,94979.22
2022-08-21T01:04:48.828Z,94984.94
2022-08-21T01:07:15.782Z,94983.75
2022-08-21T01:09:42.794Z,94977.38
2022-08-21T01:12:10.882Z,94977.38
2022-08-21T01:14:40.094Z,94973.41
2022-08-21T01:17:07.807Z,94973.72
2022-08-21T01:19:34.806Z,94971.91
2022-08-21T01:22:03.742Z,94977.84
2022-08-21T01:24:32.460Z,94969.13
2022-08-21T01:27:00.833Z,94969.59
2022-08-21T01:29:35.225Z,94971.13
2022-08-21T01:32:06.406Z,94967.66
2022-08-21T01:34:33.801Z,94973.22
2022-08-21T01:37:01.798Z,94973.22
2022-08-21T01:39:28.458Z,94961.16
2022-08-21T01:41:55.128Z,94962.53
2022-08-21T01:44:22.273Z,94960.22
2022-08-21T01:46:49.284Z,94969.69
2022-08-21T01:49:16.645Z,94955.13
2022-08-21T01:51:43.371Z,94965.16
2022-08-21T01:54:11.851Z,94965.59
2022-08-21T01:56:40.057Z,94965.72
2022-08-21T01:59:07.346Z,94954.06
2022-08-21T02:01:34.104Z,94954.56
2022-08-21T02:04:01.497Z,94953.97
2022-08-21T02:06:28.273Z,94950.25
2022-08-21T02:08:55.042Z,94946.28
2022-08-21T02:11:23.089Z,94945.56
2022-08-21T02:13:49.915Z,94949.25
2022-08-21T02:16:19.149Z,94944.47
2022-08-21T02:18:47.078Z,94944.97
2022-08-21T02:21:13.758Z,94945.50
2022-08-21T02:23:40.495Z,94951.09
2022-08-21T02:26:08.565Z,94946.06
2022-08-21T02:28:37.691Z,94949.25
2022-08-21T02:31:05.051Z,94951.72
2022-08-21T02:33:31.942Z,94947.03
2022-08-21T02:35:59.692Z,94944.69
2022-08-21T02:38:28.979Z,94955.41
2022-08-21T02:40:56.409Z,94953.34
2022-08-21T02:43:25.373Z,94951.44
2022-08-21T02:45:54.802Z,94943.47
2022-08-21T02:48:23.878Z,94943.47
2022-08-21T02:50:53.034Z,94938.72
2022-08-21T02:53:20.831Z,94944.81
2022-08-21T02:55:49.340Z,94948.53
2022-08-21T02:58:18.645Z,94941.31
2022-08-21T03:00:45.341Z,94941.81
2022-08-21T03:03:15.448Z,94942.34
2022-08-21T03:05:42.787Z,94938.88
2022-08-21T03:08:11.867Z,94943.13
2022-08-21T03:10:40.646Z,94936.28
2022-08-21T03:13:08.254Z,94936.56
2022-08-21T03:15:35.797Z,94935.78
2022-08-21T03:18:04.542Z,94937.91
2022-08-21T03:20:33.566Z,94940.31
2022-08-21T03:23:01.068Z,94940.06
2022-08-21T03:25:40.736Z,94947.06
2022-08-21T03:28:13.400Z,94945.19
2022-08-21T03:30:41.041Z,94945.69
2022-08-21T03:33:07.740Z,94941.69
2022-08-21T03:35:36.421Z,94938.72
2022-08-21T03:38:03.108Z,94950.44
2022-08-21T03:40:30.129Z,94951.25
2022-08-21T03:42:56.997Z,94945.41
2022-08-21T03:45:23.842Z,94945.69
2022-08-21T03:47:56.974Z,94939.84
2022-08-21T03:50:25.379Z,94940.44
2022-08-21T03:52:53.503Z,94940.72
2022-08-21T03:55:20.332Z,94942.59
2022-08-21T03:57:47.204Z,94942.59
2022-08-21T04:00:16.190Z,94955.91
2022-08-21T04:02:43.808Z,94955.97
2022-08-21T04:05:11.571Z,94955.44
2022-08-21T04:07:38.297Z,94953.34
2022-08-21T04:10:07.850Z,94946.72
2022-08-21T04:12:34.520Z,94950.16
2022-08-21T04:15:02.784Z,94954.44
2022-08-21T04:17:29.553Z,94953.09
2022-08-21T04:19:56.195Z,94959.41
2022-08-21T04:22:23.294Z,94958.84
2022-08-21T04:24:50.807Z,94961.44
2022-08-21T04:27:18.789Z,94959.28
2022-08-21T04:29:45.411Z,94955.00
2022-08-21T04:32:12.074Z,94957.88
2022-08-21T04:34:38.749Z,94963.72
2022-08-21T04:37:05.608Z,94965.59
2022-08-21T04:39:32.259Z,94958.44
2022-08-21T04:41:58.993Z,94964.09
2022-08-21T04:44:27.001Z,94962.03
2022-08-21T04:46:53.592Z,94972.47
2022-08-21T04:49:20.263Z,94968.50
2022-08-21T04:51:47.656Z,94970.38
2022-08-21T04:54:19.852Z,94971.16
2022-08-21T04:56:50.699Z,94974.88
2022-08-21T04:59:22.121Z,94978.34
2022-08-21T05:01:51.212Z,94974.88
2022-08-21T05:04:23.377Z,94976.75
2022-08-21T05:06:51.803Z,94976.75
2022-08-21T05:09:21.511Z,94969.00
2022-08-21T05:11:49.678Z,94975.34
2022-08-21T05:14:16.969Z,94976.06
2022-08-21T05:16:44.847Z,94979.19
2022-08-21T05:19:13.638Z,94978.56
2022-08-21T05:21:42.525Z,94979.28
2022-08-21T05:24:09.678Z,94983.50
2022-08-21T05:26:45.487Z,94985.00
2022-08-21T05:29:14.118Z,94980.41
2022-08-21T05:31:41.633Z,94981.16
2022-08-21T05:34:09.032Z,94980.56
2022-08-21T05:36:37.714Z,94986.66
2022-08-21T05:39:04.576Z,94978.56
2022-08-21T05:41:31.244Z,94981.72
2022-08-21T05:44:01.007Z,94981.97
2022-08-21T05:46:27.675Z,94978.91
2022-08-21T05:48:54.351Z,94983.59
2022-08-21T05:51:21.024Z,94978.91
2022-08-21T05:53:49.099Z,94981.41
2022-08-21T05:56:16.196Z,94980.47
2022-08-21T05:58:42.909Z,94981.69
2022-08-21T06:01:10.035Z,94980.81
2022-08-21T06:03:38.720Z,94982.81
2022-08-21T06:06:05.820Z,94984.84
2022-08-21T06:08:32.642Z,94981.19
2022-08-21T06:11:01.886Z,94973.91
2022-08-21T06:13:29.290Z,94981.53
2022-08-21T06:16:03.885Z,94976.78
2022-08-21T06:18:30.750Z,94979.00
2022-08-21T06:20:57.386Z,94972.16
2022-08-21T06:23:24.620Z,94977.00
2022-08-21T06:26:01.689Z,94972.84
2022-08-21T06:28:28.373Z,94972.16
2022-08-21T06:30:55.211Z,94984.03
2022-08-21T06:33:21.827Z,94981.47
2022-08-21T06:35:49.194Z,94982.34
2022-08-21T06:38:16.200Z,94982.44
2022-08-21T06:40:46.905Z,94979.81
2022-08-21T06:43:17.773Z,94978.66
2022-08-21T06:45:44.674Z,94976.81
2022-08-21T06:48:14.545Z,94978.47
2022-08-21T06:50:43.704Z,94974.97
2022-08-21T06:53:12.851Z,94973.81
2022-08-21T06:55:41.166Z,94970.63
2022-08-21T06:58:07.970Z,94968.19
2022-08-21T07:00:40.194Z,94960.53
2022-08-21T07:03:07.219Z,94967.09
2022-08-21T07:05:34.142Z,94960.22
2022-08-21T07:08:00.777Z,94966.25
2022-08-21T07:10:28.155Z,94957.66
2022-08-21T07:13:00.551Z,94960.34
2022-08-21T07:15:29.210Z,94952.97
2022-08-21T07:17:59.837Z,94944.16
2022-08-21T07:20:27.586Z,94947.16
2022-08-21T07:22:54.711Z,94950.03
2022-08-21T07:25:21.575Z,94948.59
2022-08-21T07:27:48.224Z,94948.47
2022-08-21T07:30:14.873Z,94939.28
2022-08-21T07:32:41.567Z,94932.59
2022-08-21T07:35:09.801Z,94936.50
2022-08-21T07:37:36.454Z,94929.09
2022-08-21T07:40:04.055Z,94928.88
2022-08-21T07:42:30.976Z,94931.97
2022-08-21T07:44:57.623Z,94925.75
2022-08-21T07:47:41.470Z,94933.06
2022-08-21T07:50:13.368Z,94927.75
2022-08-21T07:52:40.379Z,94923.75
2022-08-21T07:55:08.274Z,94927.72
2022-08-21T07:57:34.985Z,94929.06
2022-08-21T08:00:01.771Z,94928.31
2022-08-21T08:02:39.446Z,94917.78
2022-08-21T08:05:08.868Z,94918.94
2022-08-21T08:07:36.872Z,94919.22
2022-08-21T08:10:04.135Z,94917.88
2022-08-21T08:12:30.841Z,94915.47
2022-08-21T08:14:57.972Z,94911.31
2022-08-21T08:17:24.991Z,94914.66
2022-08-21T08:19:51.845Z,94908.59
2022-08-21T08:22:20.402Z,94916.50
2022-08-21T08:24:49.236Z,94923.81
2022-08-21T08:27:16.365Z,94914.28
2022-08-21T08:29:43.111Z,94915.97
2022-08-21T08:32:09.949Z,94907.69
2022-08-21T08:34:38.114Z,94909.91
2022-08-21T08:37:05.615Z,94910.53
2022-08-21T08:39:34.817Z,94903.88
2022-08-21T08:42:33.686Z,94903.19
2022-08-21T08:45:02.697Z,94899.47
2022-08-21T08:47:32.083Z,94901.63
2022-08-21T08:50:04.399Z,94906.41
2022-08-21T08:52:34.283Z,94914.50
2022-08-21T08:55:04.888Z,94908.06
2022-08-21T08:57:34.693Z,94903.88
2022-08-21T09:00:10.071Z,94908.19
2022-08-21T09:02:39.135Z,94905.47
2022-08-21T09:05:07.021Z,94898.69
2022-08-21T09:07:40.920Z,94905.00
2022-08-21T09:10:15.094Z,94909.69
2022-08-21T09:12:54.648Z,94905.66
2022-08-21T09:15:29.739Z,94905.25
2022-08-21T09:18:23.408Z,94895.44
2022-08-21T09:21:04.049Z,94900.81
2022-08-21T09:23:43.434Z,94894.41
2022-08-21T09:26:13.966Z,94897.91
2022-08-21T09:28:42.510Z,94897.13
2022-08-21T09:31:17.697Z,94887.41
2022-08-21T09:33:44.491Z,94895.72
2022-08-21T09:36:11.311Z,94893.63
2022-08-21T09:38:38.779Z,94893.13
2022-08-21T09:41:08.533Z,94895.19
2022-08-21T09:43:36.999Z,94890.88
2022-08-21T09:46:10.991Z,94883.22
2022-08-21T09:48:44.194Z,94886.81
2022-08-21T09:51:15.239Z,94888.88
2022-08-21T09:53:47.519Z,94894.50
2022-08-21T09:56:40.330Z,94892.03
2022-08-21T09:59:25.247Z,94889.56
2022-08-21T10:01:54.785Z,94879.91
2022-08-21T10:04:25.427Z,94882.38
2022-08-21T10:06:52.156Z,94879.16
2022-08-21T10:09:23.314Z,94874.50
2022-08-21T10:11:53.362Z,94878.31
2022-08-21T10:14:32.619Z,94872.97
2022-08-21T10:17:07.265Z,94878.03
2022-08-21T10:19:44.061Z,94873.13
2022-08-21T10:22:23.980Z,94873.56
2022-08-21T10:25:03.326Z,94872.53
2022-08-21T10:27:38.762Z,94869.91
2022-08-21T10:30:09.599Z,94872.22
2022-08-21T10:32:59.728Z,94873.59
2022-08-21T10:35:33.146Z,94879.31
2022-08-21T10:38:39.264Z,94875.00
2022-08-21T10:41:11.724Z,94869.56
2022-08-21T10:43:46.075Z,94870.84
2022-08-21T10:46:18.792Z,94868.13
2022-08-21T10:48:51.560Z,94864.91
2022-08-21T10:51:29.061Z,94857.28
2022-08-21T10:54:05.429Z,94859.41
2022-08-21T10:56:34.586Z,94865.97
2022-08-21T10:59:15.750Z,94861.28
2022-08-21T11:01:50.108Z,94863.50
2022-08-21T11:04:24.560Z,94853.72
2022-08-21T11:07:03.786Z,94845.06
2022-08-21T11:09:44.588Z,94843.19
2022-08-21T11:12:23.323Z,94844.72
2022-08-21T11:14:57.657Z,94838.00
2022-08-21T11:17:34.210Z,94837.22
2022-08-21T11:20:09.189Z,94837.63
2022-08-21T11:22:40.460Z,94837.69
2022-08-21T11:25:18.366Z,94831.09
2022-08-21T11:27:51.392Z,94829.16
2022-08-21T11:30:18.173Z,94824.47
2022-08-21T11:33:07.202Z,94824.66
2022-08-21T11:35:43.112Z,94822.72
2022-08-21T11:38:25.860Z,94823.22
2022-08-21T11:41:08.034Z,94820.59
2022-08-21T11:43:39.754Z,94821.06
2022-08-21T11:46:18.529Z,94813.06
2022-08-21T11:48:59.774Z,94820.53
2022-08-21T11:51:34.987Z,94816.28
2022-08-21T11:54:07.590Z,94814.75
2022-08-21T11:56:39.617Z,94813.69
2022-08-21T11:59:10.758Z,94803.94
2022-08-21T12:01:43.096Z,94801.16
2022-08-21T12:04:17.879Z,94805.75
2022-08-21T12:06:47.123Z,94801.03
2022-08-21T12:09:32.492Z,94794.91
2022-08-21T12:12:03.738Z,94789.88
2022-08-21T12:14:42.705Z,94789.16
2022-08-21T12:17:20.471Z,94784.97
2022-08-21T12:19:58.960Z,94776.47
2022-08-21T12:22:37.522Z,94776.53
2022-08-21T12:25:07.300Z,94778.84
2022-08-21T12:27:47.351Z,94776.13
2022-08-21T12:30:22.637Z,94776.94
2022-08-21T12:32:59.644Z,94766.06
2022-08-21T12:35:33.274Z,94773.41
2022-08-21T12:38:08.063Z,94770.69
2022-08-21T12:40:39.776Z,94763.34
2022-08-21T12:43:15.137Z,94757.28
2022-08-21T12:45:44.325Z,94756.47
2022-08-21T12:48:19.144Z,94747.13
2022-08-21T12:50:52.354Z,94740.91
2022-08-21T12:53:27.957Z,94747.53
2022-08-21T12:56:00.771Z,94742.09
2022-08-21T12:58:28.185Z,94745.16
2022-08-21T13:00:58.143Z,94736.22
2022-08-21T13:03:25.315Z,94734.13
2022-08-21T13:05:53.654Z,94734.44
2022-08-21T13:08:24.313Z,94728.97
2022-08-21T13:10:59.248Z,94733.22
2022-08-21T13:13:28.397Z,94721.50
2022-08-21T13:15:59.682Z,94727.72
2022-08-21T13:18:32.808Z,94726.19
2022-08-21T13:21:08.086Z,94729.25
2022-08-21T13:23:36.526Z,94730.50
2022-08-21T13:26:17.830Z,94726.19
2022-08-21T13:28:48.270Z,94725.31
2022-08-21T13:31:22.784Z,94717.91
2022-08-21T13:33:51.709Z,94714.81
2022-08-21T13:36:21.173Z,94709.03
2022-08-21T13:38:49.506Z,94711.41
2022-08-21T13:41:22.774Z,94705.53
2022-08-21T13:43:52.283Z,94706.63
2022-08-21T13:46:23.359Z,94707.25
2022-08-21T13:48:50.210Z,94702.13
2022-08-21T13:51:20.248Z,94697.81
2022-08-21T13:53:53.259Z,94704.84
2022-08-21T13:56:26.516Z,94700.13
2022-08-21T13:58:56.774Z,94704.34
2022-08-21T14:01:27.521Z,94701.31
2022-08-21T14:03:58.922Z,94695.97
2022-08-21T14:06:28.065Z,94701.03
2022-08-21T14:08:59.767Z,94700.22
2022-08-21T14:11:27.002Z,94699.78
2022-08-21T14:13:59.877Z,94702.44
2022-08-21T14:16:28.722Z,94695.81
2022-08-21T14:19:10.114Z,94692.59
2022-08-21T14:21:37.989Z,94700.25
2022-08-21T14:24:08.104Z,94703.50
2022-08-21T14:26:37.108Z,94696.72
2022-08-21T14:29:10.333Z,94696.75
2022-08-21T14:31:43.237Z,94692.19
2022-08-21T14:34:19.048Z,94698.72
2022-08-21T14:36:47.971Z,94695.84
2022-08-21T14:39:16.398Z,94685.69
2022-08-21T14:41:43.826Z,94690.63
2022-08-21T14:44:11.384Z,94696.06
2022-08-21T14:46:45.791Z,94690.72
2022-08-21T14:49:23.037Z,94696.44
2022-08-21T14:51:54.696Z,94694.81
2022-08-21T14:54:28.126Z,94690.56
2022-08-21T14:57:01.456Z,94690.50
2022-08-21T14:59:28.430Z,94692.06
2022-08-21T15:01:55.119Z,94700.56
2022-08-21T15:04:21.781Z,94688.75
2022-08-21T15:06:48.385Z,94690.53
2022-08-21T15:09:15.065Z,94684.25
2022-08-21T15:11:43.413Z,94689.22
2022-08-21T15:14:18.517Z,94691.50
2022-08-21T15:16:45.018Z,94691.81
2022-08-21T15:19:11.647Z,94691.44
2022-08-21T15:21:38.306Z,94693.75
2022-08-21T15:24:05.320Z,94697.84
2022-08-21T15:26:32.214Z,94697.75
2022-08-21T15:29:01.321Z,94700.06
2022-08-21T15:31:28.465Z,94690.00
2022-08-21T15:33:56.123Z,94700.16
2022-08-21T15:36:22.798Z,94700.19
2022-08-21T15:38:50.298Z,94691.22
2022-08-21T15:41:19.071Z,94688.88
2022-08-21T15:43:48.692Z,94693.53
2022-08-21T15:46:19.391Z,94692.66
2022-08-21T15:48:47.169Z,94687.19
2022-08-21T15:51:15.496Z,94687.13
2022-08-21T15:53:42.978Z,94695.63
2022-08-21T15:56:18.749Z,94689.06
2022-08-21T15:58:45.503Z,94690.94
2022-08-21T16:01:12.248Z,94687.97
2022-08-21T16:03:40.335Z,94689.81
2022-08-21T16:06:06.987Z,94680.09
2022-08-21T16:08:33.700Z,94687.16
2022-08-21T16:11:01.236Z,94695.63
2022-08-21T16:13:30.188Z,94688.91
2022-08-21T16:15:56.902Z,94691.59
2022-08-21T16:18:24.056Z,94688.03
2022-08-21T16:20:52.243Z,94690.25
2022-08-21T16:23:18.985Z,94684.72
2022-08-21T16:25:45.806Z,94690.06
2022-08-21T16:28:15.390Z,94688.47
2022-08-21T16:30:44.661Z,94692.63
2022-08-21T16:33:24.877Z,94687.16
2022-08-21T16:35:52.884Z,94683.88
2022-08-21T16:38:19.815Z,94689.16
2022-08-21T16:40:46.550Z,94684.41
2022-08-21T16:43:13.318Z,94682.50
2022-08-21T16:45:41.586Z,94684.78
2022-08-21T16:48:09.695Z,94683.13
2022-08-21T16:50:37.872Z,94676.09
2022-08-21T16:53:07.030Z,94676.75
2022-08-21T16:55:35.456Z,94676.59
2022-08-21T16:58:13.681Z,94681.94
2022-08-21T17:00:40.515Z,94673.31
2022-08-21T17:03:07.371Z,94678.28
2022-08-21T17:05:33.960Z,94680.22
2022-08-21T17:08:00.638Z,94671.28
2022-08-21T17:10:28.576Z,94672.88
2022-08-21T17:12:58.451Z,94673.31
2022-08-21T17:15:28.183Z,94682.22
2022-08-21T17:17:56.506Z,94679.84
2022-08-21T17:20:23.750Z,94674.38
2022-08-21T17:22:50.403Z,94678.56
2022-08-21T17:25:17.302Z,94670.00
2022-08-21T17:27:47.440Z,94672.66
2022-08-21T17:30:15.519Z,94679.88
2022-08-21T17:32:43.494Z,94676.75
2022-08-21T17:35:11.004Z,94673.53
2022-08-21T17:37:38.060Z,94673.81
2022-08-21T17:40:07.559Z,94682.59
2022-08-21T17:42:34.361Z,94674.75
2022-08-21T17:45:03.883Z,94677.84
2022-08-21T17:47:30.540Z,94678.09
2022-08-21T17:49:57.180Z,94678.72
2022-08-21T17:52:23.783Z,94681.69
2022-08-21T17:54:50.421Z,94678.13
2022-08-21T17:57:20.609Z,94688.84
2022-08-21T17:59:49.790Z,94692.16
2022-08-21T18:02:20.012Z,94686.91
2022-08-21T18:04:48.318Z,94690.94
2022-08-21T18:07:31.763Z,94691.09
2022-08-21T18:10:00.042Z,94691.59
2022-08-21T18:12:26.767Z,94692.78
2022-08-21T18:14:53.542Z,94687.47
2022-08-21T18:17:23.809Z,94697.84
2022-08-21T18:19:50.530Z,94695.91
2022-08-21T18:22:17.182Z,94704.59
2022-08-21T18:24:44.327Z,94702.41
2022-08-21T18:27:13.398Z,94707.41
2022-08-21T18:29:43.871Z,94711.97
2022-08-21T18:32:30.318Z,94708.13
2022-08-21T18:35:01.704Z,94717.53
2022-08-21T18:37:28.559Z,94716.41
2022-08-21T18:39:55.359Z,94721.28
2022-08-21T18:42:23.163Z,94715.75
2022-08-21T18:45:00.912Z,94713.66
2022-08-21T18:47:33.613Z,94716.09
2022-08-21T18:50:01.627Z,94717.84
2022-08-21T18:52:28.790Z,94717.59
2022-08-21T18:54:55.731Z,94718.19
2022-08-21T18:57:23.710Z,94723.66
2022-08-21T18:59:50.318Z,94722.78
2022-08-21T19:02:17.052Z,94728.34
2022-08-21T19:04:45.115Z,94736.09
2022-08-21T19:07:13.924Z,94730.84
2022-08-21T19:09:41.065Z,94739.72
2022-08-21T19:12:12.689Z,94736.38
2022-08-21T19:14:41.168Z,94741.56
2022-08-21T19:17:08.558Z,94736.63
2022-08-21T19:19:36.318Z,94742.66
2022-08-21T19:22:06.297Z,94742.72
2022-08-21T19:24:40.145Z,94745.47
2022-08-21T19:27:16.870Z,94744.72
2022-08-21T19:29:43.627Z,94736.53
2022-08-21T19:32:11.088Z,94740.78
2022-08-21T19:34:40.139Z,94747.28
2022-08-21T19:37:08.701Z,94748.72
2022-08-21T19:39:41.291Z,94751.56
2022-08-21T19:42:13.202Z,94743.81
2022-08-21T19:44:40.760Z,94748.94
2022-08-21T19:47:12.909Z,94752.91
2022-08-21T19:49:49.931Z,94748.69
2022-08-21T19:52:16.866Z,94744.41
2022-08-21T19:54:44.993Z,94741.78
2022-08-21T19:57:13.077Z,94750.59
2022-08-21T19:59:41.074Z,94744.63
2022-08-21T20:02:09.874Z,94746.22
2022-08-21T20:04:37.341Z,94744.97
2022-08-21T20:07:04.578Z,94749.59
2022-08-21T20:09:36.241Z,94746.00
2022-08-21T20:12:09.879Z,94750.22
2022-08-21T20:14:43.578Z,94743.28
2022-08-21T20:17:12.090Z,94751.94
2022-08-21T20:19:40.106Z,94752.75
2022-08-21T20:22:07.459Z,94752.25
2022-08-21T20:24:36.302Z,94752.91
2022-08-21T20:27:05.932Z,94754.94
2022-08-21T20:29:39.016Z,94751.16
2022-08-21T20:32:12.129Z,94754.91
2022-08-21T20:34:55.566Z,94754.63
2022-08-21T20:37:36.401Z,94748.63
2022-08-21T20:40:09.897Z,94750.53
2022-08-21T20:42:36.909Z,94745.78
2022-08-21T20:47:59.253Z,94736.28
2022-08-21T20:50:29.109Z,94748.22
2022-08-21T20:53:00.900Z,94735.66
2022-08-21T20:55:29.661Z,94750.78
2022-08-21T20:58:02.379Z,94736.94
2022-08-21T21:00:34.651Z,94733.94
2022-08-21T21:03:12.004Z,94739.63
2022-08-21T21:05:46.554Z,94738.78
2022-08-21T21:08:18.827Z,94730.09
2022-08-21T21:10:51.815Z,94737.16
2022-08-21T21:13:22.941Z,94739.84
2022-08-21T21:15:54.592Z,94746.00
2022-08-21T21:18:35.003Z,94736.69
2022-08-21T21:21:07.001Z,94738.09
2022-08-21T21:23:40.382Z,94738.09
2022-08-21T21:26:15.136Z,94735.09
2022-08-21T21:28:48.813Z,94737.75
2022-08-21T21:31:17.881Z,94741.06
2022-08-21T21:33:47.620Z,94748.69
2022-08-21T21:36:24.855Z,94748.22
2022-08-21T21:38:57.936Z,94743.50
2022-08-21T21:41:34.066Z,94735.81
2022-08-21T21:44:28.941Z,94736.75
2022-08-21T21:47:04.652Z,94733.91
2022-08-21T21:49:53.010Z,94730.50
2022-08-21T21:52:26.855Z,94736.13
2022-08-21T21:55:05.593Z,94738.66
2022-08-21T21:58:10.572Z,94739.44
2022-08-21T22:00:52.413Z,94737.88
2022-08-21T22:03:27.088Z,94732.19
2022-08-21T22:06:01.176Z,94732.28
2022-08-21T22:08:39.493Z,94739.16
2022-08-21T22:11:24.503Z,94744.56
2022-08-21T22:14:03.974Z,94740.78
2022-08-21T22:16:32.716Z,94738.38
2022-08-21T22:19:08.305Z,94739.66
2022-08-21T22:21:47.835Z,94743.63
2022-08-21T22:24:22.365Z,94738.25
2022-08-21T22:26:52.278Z,94738.91
2022-08-21T22:29:21.710Z,94744.75
2022-08-21T22:32:02.032Z,94743.16
2022-08-21T22:34:32.017Z,94750.22
2022-08-21T22:37:04.205Z,94746.78
2022-08-21T22:39:38.817Z,94752.13
2022-08-21T22:42:10.819Z,94756.50
2022-08-21T22:44:49.146Z,94752.75
2022-08-21T22:47:21.553Z,94749.09
2022-08-21T22:49:50.845Z,94743.88
2022-08-21T22:52:23.344Z,94733.84
2022-08-21T22:54:53.290Z,94733.09
2022-08-21T22:57:24.956Z,94740.88
2022-08-21T22:59:56.115Z,94736.47
2022-08-21T23:02:34.478Z,94735.88
2022-08-21T23:05:04.494Z,94738.22
2022-08-21T23:07:43.470Z,94732.47
2022-08-21T23:10:20.552Z,94732.59
2022-08-21T23:12:49.688Z,94734.88
2022-08-21T23:15:17.901Z,94728.63
2022-08-21T23:17:52.381Z,94732.69
2022-08-21T23:20:25.645Z,94731.91
2022-08-21T23:23:06.102Z,94733.13
2022-08-21T23:25:54.158Z,94730.81
2022-08-21T23:28:39.417Z,94725.34
2022-08-21T23:31:16.431Z,94731.19
2022-08-21T23:34:01.093Z,94731.09
2022-08-21T23:37:04.855Z,94731.59
2022-08-21T23:39:52.886Z,94741.84
2022-08-21T23:42:51.560Z,94735.59
2022-08-21T23:45:38.378Z,94721.00
2022-08-21T23:48:21.597Z,94722.91
2022-08-21T23:51:00.664Z,94724.19
2022-08-21T23:53:40.884Z,94724.97
2022-08-21T23:56:27.248Z,94730.50
2022-08-21T23:59:03.197Z,94727.84
